createdAt,value
2019-01-25T00:00:36.448Z,190.22
2019-01-25T00:03:10.339Z,173.05
2019-01-25T00:05:36.681Z,179.30
2019-01-25T00:08:05.977Z,201.15
2019-01-25T00:10:34.864Z,182.57
2019-01-25T00:13:03.683Z,188.12
2019-01-25T00:15:32.711Z,187.45
2019-01-25T00:18:01.648Z,202.53
2019-01-25T00:20:30.569Z,201.58
2019-01-25T00:22:59.596Z,188.97
2019-01-25T00:25:29.994Z,191.50
2019-01-25T00:27:58.844Z,183.00
2019-01-25T00:30:27.711Z,182.20
2019-01-25T00:32:56.720Z,189.32
2019-01-25T00:35:25.648Z,176.35
2019-01-25T00:37:54.625Z,201.90
2019-01-25T00:40:23.497Z,185.75
2019-01-25T00:42:52.345Z,185.20
2019-01-25T00:45:21.212Z,179.87
2019-01-25T00:47:51.104Z,184.93
2019-01-25T00:50:20.158Z,184.48
2019-01-25T00:52:49.132Z,183.90
2019-01-25T00:55:18.097Z,180.22
2019-01-25T00:57:46.981Z,185.85
2019-01-25T01:00:21.516Z,198.50
2019-01-25T01:02:50.352Z,183.62
2019-01-25T01:05:19.808Z,195.62
2019-01-25T01:07:50.436Z,198.25
2019-01-25T01:10:19.288Z,188.07
2019-01-25T01:12:48.176Z,205.92
2019-01-25T01:15:17.079Z,188.90
2019-01-25T01:17:45.952Z,195.68
2019-01-25T01:20:16.337Z,200.72
2019-01-25T01:22:45.228Z,191.22
2019-01-25T01:25:14.669Z,180.52
2019-01-25T01:27:43.552Z,172.93
2019-01-25T01:30:15.696Z,162.77
2019-01-25T01:32:44.573Z,155.37
2019-01-25T01:35:13.535Z,155.55
2019-01-25T01:37:42.396Z,145.02
2019-01-25T01:40:21.494Z,147.93
2019-01-25T01:42:45.326Z,163.05
2019-01-25T01:45:14.248Z,157.30
2019-01-25T01:47:43.145Z,145.00
2019-01-25T01:50:14.164Z,156.35
2019-01-25T01:52:43.153Z,158.63
2019-01-25T01:55:12.176Z,171.77
2019-01-25T01:57:41.124Z,163.05
2019-01-25T02:00:19.178Z,172.87
2019-01-25T02:02:48.225Z,163.90
2019-01-25T02:05:17.124Z,183.27
2019-01-25T02:07:46.008Z,176.85
2019-01-25T02:10:17.260Z,165.50
2019-01-25T02:12:46.199Z,163.87
2019-01-25T02:15:16.503Z,163.50
2019-01-25T02:17:45.342Z,169.13
2019-01-25T02:20:17.280Z,154.53
2019-01-25T02:22:46.206Z,152.55
2019-01-25T02:25:15.228Z,156.37
2019-01-25T02:27:44.156Z,158.10
2019-01-25T02:30:16.031Z,141.45
2019-01-25T02:32:45.169Z,144.87
2019-01-25T02:35:14.109Z,147.02
2019-01-25T02:37:43.785Z,161.77
2019-01-25T02:40:13.941Z,151.57
2019-01-25T02:42:42.790Z,166.43
2019-01-25T02:45:12.314Z,147.37
2019-01-25T02:47:41.206Z,146.32
2019-01-25T02:50:12.796Z,147.45
2019-01-25T02:52:42.540Z,136.80
2019-01-25T02:55:11.542Z,140.43
2019-01-25T02:57:40.469Z,125.05
2019-01-25T03:00:12.988Z,146.98
2019-01-25T03:02:41.948Z,131.45
2019-01-25T03:05:12.485Z,122.90
2019-01-25T03:07:41.360Z,127.30
2019-01-25T03:10:11.044Z,134.30
2019-01-25T03:12:39.912Z,123.95
2019-01-25T03:15:11.569Z,131.78
2019-01-25T03:17:40.430Z,134.93
2019-01-25T03:20:09.734Z,135.88
2019-01-25T03:22:38.560Z,138.15
2019-01-25T03:25:09.073Z,131.95
2019-01-25T03:27:38.038Z,133.35
2019-01-25T03:30:08.363Z,134.85
2019-01-25T03:32:38.550Z,133.95
2019-01-25T03:35:08.082Z,139.40
2019-01-25T03:37:37.825Z,127.67
2019-01-25T03:40:07.816Z,138.60
2019-01-25T03:42:36.699Z,136.88
2019-01-25T03:45:09.278Z,137.52
2019-01-25T03:47:38.217Z,131.37
2019-01-25T03:50:08.353Z,135.50
2019-01-25T03:52:37.242Z,128.62
2019-01-25T03:55:07.294Z,132.50
2019-01-25T03:57:36.156Z,133.65
2019-01-25T04:00:08.228Z,137.20
2019-01-25T04:02:37.236Z,137.68
2019-01-25T04:05:07.176Z,133.78
2019-01-25T04:07:36.038Z,143.02
2019-01-25T04:10:05.854Z,135.72
2019-01-25T04:12:34.710Z,143.72
2019-01-25T04:15:03.676Z,136.00
2019-01-25T04:17:32.530Z,135.93
2019-01-25T04:20:01.380Z,153.02
2019-01-25T04:22:30.270Z,142.10
2019-01-25T04:24:59.291Z,156.20
2019-01-25T04:27:28.176Z,145.55
2019-01-25T04:29:57.102Z,137.62
2019-01-25T04:32:25.967Z,148.43
2019-01-25T04:34:54.820Z,137.85
2019-01-25T04:37:25.884Z,144.25
2019-01-25T04:39:54.782Z,144.77
2019-01-25T04:42:23.635Z,137.30
2019-01-25T04:44:52.534Z,139.55
2019-01-25T04:47:28.013Z,141.65
2019-01-25T04:49:57.004Z,139.92
2019-01-25T04:52:25.871Z,135.05
2019-01-25T04:54:54.741Z,139.55
2019-01-25T04:57:23.816Z,137.12
2019-01-25T04:59:52.656Z,128.57
2019-01-25T05:02:21.523Z,144.20
2019-01-25T05:04:50.371Z,137.65
2019-01-25T05:07:19.122Z,143.72
2019-01-25T05:09:47.846Z,152.45
2019-01-25T05:12:16.610Z,143.50
2019-01-25T05:14:45.690Z,138.43
2019-01-25T05:17:14.634Z,152.43
2019-01-25T05:19:43.440Z,139.75
2019-01-25T05:22:12.350Z,151.85
2019-01-25T05:24:41.307Z,150.70
2019-01-25T05:27:10.146Z,155.90
2019-01-25T05:29:48.983Z,154.45
2019-01-25T05:32:17.731Z,159.03
2019-01-25T05:34:46.523Z,155.48
2019-01-25T05:37:18.982Z,177.25
2019-01-25T05:39:47.844Z,167.62
2019-01-25T05:42:16.606Z,167.05
2019-01-25T05:44:45.318Z,169.02
2019-01-25T05:47:14.082Z,179.23
2019-01-25T05:49:42.946Z,168.05
2019-01-25T05:52:16.998Z,160.32
2019-01-25T05:54:46.666Z,159.37
2019-01-25T05:57:15.391Z,151.78
2019-01-25T05:59:44.132Z,144.90
2019-01-25T06:02:13.131Z,148.90
2019-01-25T06:04:41.909Z,146.53
2019-01-25T06:07:10.718Z,154.87
2019-01-25T06:09:39.502Z,155.87
2019-01-25T06:12:08.243Z,154.90
2019-01-25T06:14:37.134Z,136.12
2019-01-25T06:17:06.139Z,144.28
2019-01-25T06:19:38.070Z,142.98
2019-01-25T06:22:06.902Z,154.18
2019-01-25T06:24:35.676Z,141.00
2019-01-25T06:27:04.648Z,150.65
2019-01-25T06:29:34.258Z,134.27
2019-01-25T06:32:03.196Z,146.75
2019-01-25T06:34:31.978Z,141.90
2019-01-25T06:37:00.698Z,134.63
2019-01-25T06:39:29.458Z,139.50
2019-01-25T06:41:58.215Z,144.60
2019-01-25T06:44:26.986Z,146.00
2019-01-25T06:46:55.754Z,147.13
2019-01-25T06:49:24.549Z,138.37
2019-01-25T06:51:53.430Z,143.78
2019-01-25T06:54:22.173Z,124.02
2019-01-25T06:56:51.006Z,139.75
2019-01-25T06:59:33.818Z,136.15
2019-01-25T07:02:08.945Z,153.47
2019-01-25T07:04:37.673Z,141.53
2019-01-25T07:07:19.114Z,153.47
2019-01-25T07:09:48.166Z,139.55
2019-01-25T07:12:17.110Z,148.57
2019-01-25T07:14:46.105Z,150.55
2019-01-25T07:17:15.031Z,135.88
2019-01-25T07:19:44.142Z,166.15
2019-01-25T07:22:12.939Z,143.07
2019-01-25T07:24:42.005Z,154.25
2019-01-25T07:27:11.304Z,170.07
2019-01-25T07:29:40.300Z,168.22
2019-01-25T07:32:09.422Z,168.00
2019-01-25T07:34:38.722Z,183.15
2019-01-25T07:37:07.479Z,161.82
2019-01-25T07:39:36.332Z,167.45
2019-01-25T07:42:05.371Z,155.80
2019-01-25T07:44:34.368Z,157.27
2019-01-25T07:47:03.339Z,143.17
2019-01-25T07:49:32.724Z,163.68
2019-01-25T07:52:02.259Z,163.87
2019-01-25T07:54:31.133Z,175.07
2019-01-25T07:57:00.892Z,167.90
2019-01-25T07:59:29.811Z,165.20
2019-01-25T08:01:58.919Z,172.57
2019-01-25T08:04:27.986Z,158.20
2019-01-25T08:06:56.877Z,165.35
2019-01-25T08:09:29.387Z,160.78
2019-01-25T08:11:58.259Z,162.20
2019-01-25T08:14:27.243Z,155.87
2019-01-25T08:16:56.379Z,166.50
2019-01-25T08:19:25.532Z,174.45
2019-01-25T08:21:54.709Z,173.55
2019-01-25T08:24:23.578Z,168.97
2019-01-25T08:26:53.058Z,193.22
2019-01-25T08:29:27.849Z,184.50
2019-01-25T08:31:53.284Z,185.45
2019-01-25T08:34:22.310Z,187.62
2019-01-25T08:36:51.125Z,184.00
2019-01-25T08:39:20.035Z,176.87
2019-01-25T08:41:49.007Z,164.05
2019-01-25T08:44:17.839Z,174.35
2019-01-25T08:46:46.715Z,170.43
2019-01-25T08:49:15.830Z,127.40
2019-01-25T08:51:47.466Z,108.40
2019-01-25T08:54:17.628Z,106.92
2019-01-25T08:56:46.603Z,108.87
2019-01-25T08:59:15.397Z,113.28
2019-01-25T09:01:44.402Z,113.05
2019-01-25T09:04:13.377Z,116.77
2019-01-25T09:06:42.175Z,127.32
2019-01-25T09:09:11.879Z,119.80
2019-01-25T09:11:40.856Z,121.92
2019-01-25T09:14:09.779Z,120.97
2019-01-25T09:16:38.703Z,135.68
2019-01-25T09:19:07.893Z,134.45
2019-01-25T09:21:37.367Z,130.05
2019-01-25T09:24:06.495Z,127.50
2019-01-25T09:26:35.838Z,128.87
2019-01-25T09:29:05.151Z,112.88
2019-01-25T09:31:34.458Z,108.78
2019-01-25T09:34:04.954Z,113.20
2019-01-25T09:36:34.184Z,125.12
2019-01-25T09:39:04.801Z,108.57
2019-01-25T09:41:37.050Z,120.85
2019-01-25T09:44:05.972Z,129.35
2019-01-25T09:46:34.869Z,115.90
2019-01-25T09:49:03.726Z,131.18
2019-01-25T09:51:32.707Z,137.30
2019-01-25T09:54:01.794Z,137.97
2019-01-25T09:56:30.836Z,130.65
2019-01-25T09:59:00.401Z,157.10
2019-01-25T10:01:29.401Z,148.75
2019-01-25T10:03:58.444Z,156.05
2019-01-25T10:06:27.364Z,150.20
2019-01-25T10:08:57.636Z,145.05
2019-01-25T10:11:26.478Z,157.43
2019-01-25T10:13:55.417Z,155.18
2019-01-25T10:16:24.352Z,151.72
2019-01-25T10:18:53.222Z,150.57
2019-01-25T10:21:22.112Z,145.87
2019-01-25T10:23:51.046Z,145.85
2019-01-25T10:26:20.161Z,136.15
2019-01-25T10:28:49.211Z,146.75
2019-01-25T10:31:18.331Z,144.55
2019-01-25T10:33:47.350Z,141.20
2019-01-25T10:36:16.328Z,133.63
2019-01-25T10:38:45.255Z,138.28
2019-01-25T10:41:14.060Z,136.43
2019-01-25T10:43:42.831Z,138.68
2019-01-25T10:46:11.808Z,138.12
2019-01-25T10:48:40.579Z,120.67
2019-01-25T10:51:09.444Z,122.67
2019-01-25T10:53:38.323Z,135.18
2019-01-25T10:56:07.156Z,131.85
2019-01-25T10:58:35.998Z,133.75
2019-01-25T11:01:04.776Z,139.28
2019-01-25T11:03:33.558Z,135.20
2019-01-25T11:06:02.510Z,142.70
2019-01-25T11:08:32.882Z,138.12
2019-01-25T11:11:02.015Z,152.95
2019-01-25T11:13:30.961Z,144.55
2019-01-25T11:15:59.807Z,144.82
2019-01-25T11:18:28.655Z,146.18
2019-01-25T11:20:57.546Z,161.80
2019-01-25T11:23:26.510Z,169.45
2019-01-25T11:25:55.490Z,173.47
2019-01-25T11:28:24.425Z,172.05
2019-01-25T11:30:53.168Z,185.32
2019-01-25T11:33:22.080Z,196.70
2019-01-25T11:35:50.882Z,209.70
2019-01-25T11:38:19.743Z,183.32
2019-01-25T11:40:48.632Z,214.05
2019-01-25T11:43:17.479Z,192.65
2019-01-25T11:45:46.220Z,214.38
2019-01-25T11:48:15.258Z,221.37
2019-01-25T11:50:44.162Z,219.35
2019-01-25T11:53:12.938Z,219.72
2019-01-25T11:55:41.978Z,229.35
2019-01-25T11:58:10.717Z,226.10
2019-01-25T12:00:42.798Z,214.30
2019-01-25T12:03:11.666Z,217.65
2019-01-25T12:05:40.479Z,241.17
2019-01-25T12:08:09.360Z,216.38
2019-01-25T12:10:38.231Z,206.75
2019-01-25T12:13:06.995Z,209.60
2019-01-25T12:15:35.806Z,217.82
2019-01-25T12:18:05.348Z,201.47
2019-01-25T12:20:34.204Z,182.32
2019-01-25T12:23:03.042Z,188.22
2019-01-25T12:25:31.868Z,193.75
2019-01-25T12:28:05.193Z,185.63
2019-01-25T12:30:37.868Z,179.95
2019-01-25T12:33:05.086Z,169.32
2019-01-25T12:35:36.384Z,160.60
2019-01-25T12:38:05.339Z,168.32
2019-01-25T12:40:34.470Z,156.85
2019-01-25T12:43:03.302Z,149.93
2019-01-25T12:45:32.209Z,146.02
2019-01-25T12:48:03.302Z,138.72
2019-01-25T12:50:41.283Z,139.30
2019-01-25T12:53:10.347Z,139.15
2019-01-25T12:55:39.318Z,134.95
2019-01-25T12:58:08.435Z,137.32
2019-01-25T13:00:37.232Z,138.92
2019-01-25T13:03:06.237Z,139.12
2019-01-25T13:05:35.012Z,136.80
2019-01-25T13:08:03.898Z,129.82
2019-01-25T13:10:32.833Z,140.50
2019-01-25T13:13:02.010Z,134.78
2019-01-25T13:15:30.950Z,147.55
2019-01-25T13:17:59.978Z,137.72
2019-01-25T13:20:28.894Z,134.40
2019-01-25T13:22:57.740Z,129.30
2019-01-25T13:25:26.502Z,127.17
2019-01-25T13:27:55.400Z,135.18
2019-01-25T13:30:26.343Z,134.70
2019-01-25T13:32:55.152Z,133.65
2019-01-25T13:35:24.018Z,139.37
2019-01-25T13:37:52.841Z,138.12
2019-01-25T13:40:22.491Z,138.57
2019-01-25T13:42:51.473Z,138.10
2019-01-25T13:45:20.380Z,132.95
2019-01-25T13:47:49.263Z,139.10
2019-01-25T13:50:20.083Z,146.10
2019-01-25T13:52:48.860Z,155.27
2019-01-25T13:55:17.815Z,147.75
2019-01-25T13:57:46.691Z,149.05
2019-01-25T14:00:23.103Z,140.32
2019-01-25T14:02:52.068Z,150.50
2019-01-25T14:05:20.981Z,140.80
2019-01-25T14:07:49.834Z,147.55
2019-01-25T14:10:36.928Z,147.62
2019-01-25T14:13:08.014Z,144.37
2019-01-25T14:15:37.039Z,152.22
2019-01-25T14:18:05.998Z,134.45
2019-01-25T14:20:34.743Z,134.32
2019-01-25T14:23:03.594Z,137.47
2019-01-25T14:25:32.572Z,144.35
2019-01-25T14:28:01.598Z,140.70
2019-01-25T14:30:35.423Z,133.10
2019-01-25T14:33:04.614Z,139.92
2019-01-25T14:35:33.344Z,138.75
2019-01-25T14:38:02.193Z,151.97
2019-01-25T14:40:30.977Z,144.35
2019-01-25T14:42:59.862Z,158.78
2019-01-25T14:45:28.666Z,140.20
2019-01-25T14:47:57.531Z,159.30
2019-01-25T14:50:27.325Z,141.77
2019-01-25T14:52:56.057Z,142.05
2019-01-25T14:55:24.818Z,151.93
2019-01-25T14:57:53.720Z,163.20
2019-01-25T15:00:22.538Z,167.77
2019-01-25T15:02:51.325Z,157.62
2019-01-25T15:05:20.253Z,150.30
2019-01-25T15:07:49.036Z,169.47
2019-01-25T15:10:19.926Z,169.77
2019-01-25T15:12:49.309Z,166.73
2019-01-25T15:15:18.099Z,167.35
2019-01-25T15:17:46.952Z,158.40
2019-01-25T15:20:18.310Z,157.75
2019-01-25T15:22:47.055Z,164.07
2019-01-25T15:25:16.006Z,160.52
2019-01-25T15:27:44.790Z,164.60
2019-01-25T15:30:24.853Z,161.25
2019-01-25T15:32:53.702Z,149.45
2019-01-25T15:35:22.577Z,154.30
2019-01-25T15:37:52.638Z,154.93
2019-01-25T15:40:21.833Z,136.25
2019-01-25T15:42:50.719Z,140.03
2019-01-25T15:45:19.615Z,135.43
2019-01-25T15:47:48.547Z,135.97
2019-01-25T15:50:22.750Z,121.20
2019-01-25T15:52:51.577Z,124.30
2019-01-25T15:55:20.606Z,124.35
2019-01-25T15:57:49.335Z,137.25
2019-01-25T16:00:24.436Z,124.82
2019-01-25T16:02:53.483Z,127.00
2019-01-25T16:05:23.315Z,125.65
2019-01-25T16:07:52.130Z,127.30
2019-01-25T16:10:21.596Z,126.18
2019-01-25T16:12:50.636Z,126.62
2019-01-25T16:15:21.647Z,129.65
2019-01-25T16:17:50.354Z,126.27
2019-01-25T16:20:19.332Z,117.75
2019-01-25T16:22:48.245Z,115.40
2019-01-25T16:25:19.149Z,111.77
2019-01-25T16:27:47.925Z,118.42
2019-01-25T16:30:19.371Z,106.35
2019-01-25T16:32:48.167Z,105.20
2019-01-25T16:35:17.043Z,100.62
2019-01-25T16:37:45.903Z,94.32
2019-01-25T16:40:16.420Z,89.70
2019-01-25T16:42:45.313Z,93.40
2019-01-25T16:45:19.928Z,92.22
2019-01-25T16:47:48.898Z,88.05
2019-01-25T16:50:23.650Z,91.47
2019-01-25T16:52:48.342Z,79.70
2019-01-25T16:55:17.111Z,75.85
2019-01-25T16:57:45.930Z,73.40
2019-01-25T17:00:22.938Z,67.35
2019-01-25T17:02:51.883Z,74.90
2019-01-25T17:05:20.596Z,73.12
2019-01-25T17:07:49.362Z,67.80
2019-01-25T17:10:18.069Z,74.15
2019-01-25T17:12:46.814Z,75.12
2019-01-25T17:15:15.600Z,69.22
2019-01-25T17:17:44.398Z,84.72
2019-01-25T17:20:20.111Z,73.47
2019-01-25T17:22:44.250Z,70.75
2019-01-25T17:25:12.966Z,78.75
2019-01-25T17:27:41.698Z,74.15
2019-01-25T17:30:19.713Z,71.42
2019-01-25T17:32:48.472Z,76.60
2019-01-25T17:35:17.170Z,84.58
2019-01-25T17:37:45.882Z,82.35
2019-01-25T17:40:15.862Z,88.80
2019-01-25T17:42:44.690Z,89.97
2019-01-25T17:45:13.524Z,88.30
2019-01-25T17:47:42.290Z,94.85
2019-01-25T17:50:12.142Z,106.35
2019-01-25T17:52:40.858Z,106.85
2019-01-25T17:55:10.122Z,120.15
2019-01-25T17:57:39.762Z,126.65
2019-01-25T18:00:15.166Z,131.18
2019-01-25T18:02:43.881Z,137.55
2019-01-25T18:05:12.719Z,137.03
2019-01-25T18:07:41.437Z,150.95
2019-01-25T18:10:12.270Z,161.77
2019-01-25T18:12:41.019Z,164.77
2019-01-25T18:15:10.499Z,168.50
2019-01-25T18:17:39.278Z,165.03
2019-01-25T18:20:09.894Z,179.00
2019-01-25T18:22:38.665Z,174.55
2019-01-25T18:25:08.790Z,198.72
2019-01-25T18:27:38.324Z,188.15
2019-01-25T18:30:19.504Z,187.22
2019-01-25T18:32:50.613Z,166.32
2019-01-25T18:35:19.333Z,178.10
2019-01-25T18:37:48.058Z,178.62
2019-01-25T18:40:16.821Z,167.50
2019-01-25T18:42:45.550Z,161.25
2019-01-25T18:45:16.252Z,153.27
2019-01-25T18:47:44.730Z,153.12
2019-01-25T18:50:14.847Z,159.43
2019-01-25T18:52:43.622Z,163.30
2019-01-25T18:55:14.919Z,144.17
2019-01-25T18:57:43.634Z,132.32
2019-01-25T19:00:15.846Z,133.30
2019-01-25T19:02:44.838Z,119.35
2019-01-25T19:05:13.545Z,126.53
2019-01-25T19:07:42.290Z,119.08
2019-01-25T19:10:14.229Z,110.35
2019-01-25T19:12:42.956Z,100.67
2019-01-25T19:15:13.529Z,100.92
2019-01-25T19:17:42.242Z,99.47
2019-01-25T19:20:12.126Z,101.65
2019-01-25T19:22:40.848Z,100.95
2019-01-25T19:25:09.606Z,77.22
2019-01-25T19:27:38.383Z,71.02
2019-01-25T19:30:12.094Z,75.92
2019-01-25T19:32:40.810Z,72.65
2019-01-25T19:35:09.808Z,65.97
2019-01-25T19:37:38.578Z,65.30
2019-01-25T19:40:09.890Z,59.35
2019-01-25T19:42:38.602Z,62.38
2019-01-25T19:45:11.968Z,58.30
2019-01-25T19:47:39.016Z,57.53
2019-01-25T19:50:09.371Z,48.65
2019-01-25T19:52:38.106Z,47.55
2019-01-25T19:55:11.433Z,51.48
2019-01-25T19:57:40.373Z,48.90
2019-01-25T20:00:13.643Z,47.50
2019-01-25T20:02:42.416Z,49.90
2019-01-25T20:05:12.272Z,46.25
2019-01-25T20:07:41.489Z,58.42
2019-01-25T20:10:11.029Z,46.37
2019-01-25T20:12:40.271Z,55.50
2019-01-25T20:15:11.138Z,46.70
2019-01-25T20:17:40.168Z,47.90
2019-01-25T20:20:17.687Z,38.73
2019-01-25T20:22:45.215Z,50.08
2019-01-25T20:25:14.105Z,54.85
2019-01-25T20:27:42.964Z,55.25
2019-01-25T20:30:20.317Z,52.45
2019-01-25T20:32:49.116Z,47.15
2019-01-25T20:35:19.528Z,45.25
2019-01-25T20:37:48.249Z,48.02
2019-01-25T20:40:17.062Z,43.25
2019-01-25T20:42:46.192Z,43.35
2019-01-25T20:45:27.007Z,37.33
2019-01-25T20:47:51.721Z,42.08
2019-01-25T20:50:23.837Z,51.37
2019-01-25T20:52:52.654Z,34.67
2019-01-25T20:55:21.399Z,43.00
2019-01-25T20:57:50.151Z,36.55
2019-01-25T21:00:21.318Z,45.73
2019-01-25T21:02:50.033Z,36.85
2019-01-25T21:05:18.787Z,40.60
2019-01-25T21:07:47.542Z,43.87
2019-01-25T21:10:20.608Z,36.03
2019-01-25T21:12:49.383Z,33.90
2019-01-25T21:15:20.254Z,37.33
2019-01-25T21:17:48.966Z,34.23
2019-01-25T21:20:20.310Z,33.80
2019-01-25T21:22:49.166Z,43.08
2019-01-25T21:25:17.954Z,37.58
2019-01-25T21:27:46.655Z,40.90
2019-01-25T21:30:18.102Z,37.67
2019-01-25T21:32:46.814Z,38.02
2019-01-25T21:35:15.538Z,36.25
2019-01-25T21:37:44.362Z,30.68
2019-01-25T21:40:15.470Z,40.35
2019-01-25T21:42:44.174Z,36.30
2019-01-25T21:45:15.230Z,35.13
2019-01-25T21:47:45.185Z,35.65
2019-01-25T21:50:16.066Z,37.03
2019-01-25T21:52:44.807Z,41.08
2019-01-25T21:55:13.813Z,36.98
2019-01-25T21:57:42.522Z,33.95
2019-01-25T22:00:14.408Z,31.10
2019-01-25T22:02:43.133Z,40.90
2019-01-25T22:05:11.930Z,30.30
2019-01-25T22:07:40.836Z,36.20
2019-01-25T22:10:12.971Z,31.27
2019-01-25T22:12:43.187Z,35.23
2019-01-25T22:15:13.594Z,38.92
2019-01-25T22:17:42.374Z,34.13
2019-01-25T22:20:14.408Z,43.73
2019-01-25T22:22:43.237Z,27.80
2019-01-25T22:25:12.067Z,34.25
2019-01-25T22:27:40.986Z,32.03
2019-01-25T22:30:12.454Z,41.65
2019-01-25T22:32:41.196Z,35.90
2019-01-25T22:35:09.965Z,37.45
2019-01-25T22:37:38.722Z,37.63
2019-01-25T22:40:10.038Z,35.50
2019-01-25T22:42:38.867Z,37.83
2019-01-25T22:45:09.887Z,29.90
2019-01-25T22:47:38.596Z,34.40
2019-01-25T22:50:10.376Z,37.60
2019-01-25T22:52:39.169Z,38.98
2019-01-25T22:55:09.881Z,28.55
2019-01-25T22:57:38.590Z,40.23
2019-01-25T23:00:13.898Z,31.52
2019-01-25T23:02:42.617Z,36.53
2019-01-25T23:06:00.194Z,35.03
2019-01-25T23:08:28.922Z,32.73
2019-01-25T23:10:57.712Z,38.20
2019-01-25T23:13:26.469Z,29.77
2019-01-25T23:15:55.223Z,37.03
2019-01-25T23:18:23.923Z,39.85
2019-01-25T23:20:52.693Z,50.15
2019-01-25T23:23:21.887Z,45.45
2019-01-25T23:25:50.788Z,36.20
2019-01-25T23:28:19.608Z,45.15
2019-01-25T23:30:48.353Z,32.88
2019-01-25T23:33:17.061Z,37.98
2019-01-25T23:35:45.932Z,35.50
2019-01-25T23:38:16.666Z,42.40
2019-01-25T23:40:45.396Z,40.33
2019-01-25T23:43:14.138Z,39.53
2019-01-25T23:45:42.922Z,49.75
2019-01-25T23:48:11.625Z,32.98
2019-01-25T23:50:40.385Z,37.80
2019-01-25T23:53:09.102Z,43.48
2019-01-25T23:55:37.840Z,47.53
2019-01-25T23:58:06.595Z,36.45
